sensor_id;sensor_type;location;lat;lon;timestamp;P1;durP1;ratioP1;P2;durP2;ratioP2
63434;SDS011;68814;50.872;5.306;2023-04-26T00:01:40;14.10;;;5.07;;
63434;SDS011;68814;50.872;5.306;2023-04-26T00:04:06;13.57;;;4.97;;
63434;SDS011;68814;50.872;5.306;2023-04-26T00:06:32;16.70;;;5.57;;
63434;SDS011;68814;50.872;5.306;2023-04-26T00:08:59;11.38;;;5.97;;
63434;SDS011;68814;50.872;5.306;2023-04-26T00:11:25;17.38;;;5.50;;
63434;SDS011;68814;50.872;5.306;2023-04-26T00:13:50;10.65;;;5.53;;
63434;SDS011;68814;50.872;5.306;2023-04-26T00:16:21;8.57;;;5.30;;
63434;SDS011;68814;50.872;5.306;2023-04-26T00:18:46;10.73;;;5.15;;
63434;SDS011;68814;50.872;5.306;2023-04-26T00:21:13;14.10;;;4.50;;
63434;SDS011;68814;50.872;5.306;2023-04-26T00:23:39;8.35;;;4.45;;
63434;SDS011;68814;50.872;5.306;2023-04-26T00:26:04;15.75;;;6.13;;
63434;SDS011;68814;50.872;5.306;2023-04-26T00:28:30;14.70;;;5.68;;
63434;SDS011;68814;50.872;5.306;2023-04-26T00:30:55;11.95;;;4.38;;
63434;SDS011;68814;50.872;5.306;2023-04-26T00:40:05;13.02;;;5.40;;
63434;SDS011;68814;50.872;5.306;2023-04-26T00:42:31;10.43;;;5.05;;
63434;SDS011;68814;50.872;5.306;2023-04-26T00:44:57;10.95;;;4.30;;
63434;SDS011;68814;50.872;5.306;2023-04-26T00:47:26;7.38;;;4.30;;
63434;SDS011;68814;50.872;5.306;2023-04-26T00:49:53;15.15;;;6.13;;
63434;SDS011;68814;50.872;5.306;2023-04-26T00:52:20;14.60;;;5.85;;
63434;SDS011;68814;50.872;5.306;2023-04-26T00:54:47;11.60;;;5.38;;
63434;SDS011;68814;50.872;5.306;2023-04-26T00:57:13;13.43;;;5.25;;
63434;SDS011;68814;50.872;5.306;2023-04-26T00:59:39;12.80;;;5.63;;
63434;SDS011;68814;50.872;5.306;2023-04-26T01:02:05;7.47;;;4.88;;
63434;SDS011;68814;50.872;5.306;2023-04-26T01:04:31;14.68;;;4.90;;
63434;SDS011;68814;50.872;5.306;2023-04-26T01:06:58;8.60;;;4.93;;
63434;SDS011;68814;50.872;5.306;2023-04-26T01:09:25;19.50;;;7.30;;
63434;SDS011;68814;50.872;5.306;2023-04-26T01:11:53;12.88;;;5.22;;
63434;SDS011;68814;50.872;5.306;2023-04-26T01:14:22;9.80;;;5.47;;
63434;SDS011;68814;50.872;5.306;2023-04-26T01:16:48;10.63;;;5.65;;
63434;SDS011;68814;50.872;5.306;2023-04-26T01:19:15;16.23;;;6.15;;
63434;SDS011;68814;50.872;5.306;2023-04-26T01:21:41;13.45;;;6.05;;
63434;SDS011;68814;50.872;5.306;2023-04-26T01:34:12;16.15;;;5.93;;
63434;SDS011;68814;50.872;5.306;2023-04-26T01:36:38;9.82;;;6.30;;
63434;SDS011;68814;50.872;5.306;2023-04-26T01:39:04;11.90;;;5.53;;
63434;SDS011;68814;50.872;5.306;2023-04-26T01:41:31;9.38;;;5.25;;
63434;SDS011;68814;50.872;5.306;2023-04-26T01:43:57;16.70;;;5.60;;
63434;SDS011;68814;50.872;5.306;2023-04-26T01:46:23;11.30;;;5.03;;
63434;SDS011;68814;50.872;5.306;2023-04-26T01:48:49;11.63;;;5.25;;
63434;SDS011;68814;50.872;5.306;2023-04-26T01:54:43;12.13;;;4.72;;
63434;SDS011;68814;50.872;5.306;2023-04-26T01:57:09;13.77;;;5.10;;
63434;SDS011;68814;50.872;5.306;2023-04-26T01:59:37;11.52;;;5.03;;
63434;SDS011;68814;50.872;5.306;2023-04-26T02:02:03;10.70;;;5.72;;
63434;SDS011;68814;50.872;5.306;2023-04-26T02:04:29;10.13;;;5.75;;
63434;SDS011;68814;50.872;5.306;2023-04-26T02:06:55;15.68;;;6.03;;
63434;SDS011;68814;50.872;5.306;2023-04-26T02:09:21;12.82;;;6.43;;
63434;SDS011;68814;50.872;5.306;2023-04-26T02:11:46;8.40;;;4.95;;
63434;SDS011;68814;50.872;5.306;2023-04-26T02:14:12;11.15;;;4.57;;
63434;SDS011;68814;50.872;5.306;2023-04-26T02:16:38;9.85;;;5.28;;
63434;SDS011;68814;50.872;5.306;2023-04-26T02:19:04;8.90;;;5.35;;
63434;SDS011;68814;50.872;5.306;2023-04-26T02:21:55;12.73;;;6.10;;
63434;SDS011;68814;50.872;5.306;2023-04-26T02:24:22;12.02;;;5.22;;
63434;SDS011;68814;50.872;5.306;2023-04-26T02:26:48;10.10;;;5.50;;
63434;SDS011;68814;50.872;5.306;2023-04-26T02:29:14;8.88;;;4.80;;
63434;SDS011;68814;50.872;5.306;2023-04-26T02:31:40;10.82;;;5.32;;
63434;SDS011;68814;50.872;5.306;2023-04-26T02:34:06;12.70;;;5.03;;
63434;SDS011;68814;50.872;5.306;2023-04-26T02:36:32;10.77;;;5.72;;
63434;SDS011;68814;50.872;5.306;2023-04-26T02:38:58;10.13;;;5.20;;
63434;SDS011;68814;50.872;5.306;2023-04-26T03:08:18;13.55;;;5.22;;
63434;SDS011;68814;50.872;5.306;2023-04-26T03:10:44;12.95;;;6.03;;
63434;SDS011;68814;50.872;5.306;2023-04-26T03:13:10;14.40;;;6.32;;
63434;SDS011;68814;50.872;5.306;2023-04-26T03:15:36;9.32;;;5.53;;
63434;SDS011;68814;50.872;5.306;2023-04-26T03:18:01;10.57;;;5.22;;
63434;SDS011;68814;50.872;5.306;2023-04-26T03:20:27;12.13;;;5.22;;
63434;SDS011;68814;50.872;5.306;2023-04-26T03:22:53;10.52;;;6.18;;
63434;SDS011;68814;50.872;5.306;2023-04-26T03:25:37;23.52;;;8.80;;
63434;SDS011;68814;50.872;5.306;2023-04-26T03:28:02;14.27;;;8.20;;
63434;SDS011;68814;50.872;5.306;2023-04-26T03:30:28;16.25;;;10.05;;
63434;SDS011;68814;50.872;5.306;2023-04-26T03:32:54;17.48;;;10.20;;
63434;SDS011;68814;50.872;5.306;2023-04-26T03:35:20;16.08;;;8.90;;
63434;SDS011;68814;50.872;5.306;2023-04-26T03:37:46;20.40;;;10.38;;
63434;SDS011;68814;50.872;5.306;2023-04-26T03:40:11;18.45;;;10.52;;
63434;SDS011;68814;50.872;5.306;2023-04-26T03:42:37;20.55;;;11.57;;
63434;SDS011;68814;50.872;5.306;2023-04-26T03:45:03;22.42;;;14.35;;
63434;SDS011;68814;50.872;5.306;2023-04-26T03:47:30;21.73;;;14.60;;
63434;SDS011;68814;50.872;5.306;2023-04-26T03:49:56;28.45;;;16.38;;
63434;SDS011;68814;50.872;5.306;2023-04-26T03:52:22;29.42;;;15.80;;
63434;SDS011;68814;50.872;5.306;2023-04-26T03:54:48;25.52;;;16.40;;
63434;SDS011;68814;50.872;5.306;2023-04-26T04:00:36;42.28;;;19.98;;
63434;SDS011;68814;50.872;5.306;2023-04-26T04:03:02;37.85;;;21.77;;
63434;SDS011;68814;50.872;5.306;2023-04-26T04:05:28;37.28;;;27.20;;
63434;SDS011;68814;50.872;5.306;2023-04-26T04:07:53;47.85;;;29.45;;
63434;SDS011;68814;50.872;5.306;2023-04-26T04:10:20;38.25;;;26.55;;
63434;SDS011;68814;50.872;5.306;2023-04-26T04:20:10;13.27;;;7.72;;
63434;SDS011;68814;50.872;5.306;2023-04-26T04:22:36;18.45;;;8.20;;
63434;SDS011;68814;50.872;5.306;2023-04-26T04:25:08;14.07;;;7.50;;
63434;SDS011;68814;50.872;5.306;2023-04-26T04:27:35;13.05;;;7.70;;
63434;SDS011;68814;50.872;5.306;2023-04-26T04:30:02;15.27;;;7.45;;
63434;SDS011;68814;50.872;5.306;2023-04-26T04:32:29;12.73;;;7.28;;
63434;SDS011;68814;50.872;5.306;2023-04-26T04:34:57;13.60;;;7.22;;
63434;SDS011;68814;50.872;5.306;2023-04-26T04:37:23;15.30;;;7.30;;
63434;SDS011;68814;50.872;5.306;2023-04-26T04:40:05;11.25;;;6.78;;
63434;SDS011;68814;50.872;5.306;2023-04-26T04:42:34;15.05;;;7.80;;
63434;SDS011;68814;50.872;5.306;2023-04-26T04:45:00;15.20;;;7.13;;
63434;SDS011;68814;50.872;5.306;2023-04-26T04:47:26;13.30;;;6.93;;
63434;SDS011;68814;50.872;5.306;2023-04-26T04:49:51;15.45;;;7.88;;
63434;SDS011;68814;50.872;5.306;2023-04-26T04:52:17;15.15;;;8.05;;
63434;SDS011;68814;50.872;5.306;2023-04-26T04:54:45;16.42;;;7.80;;
63434;SDS011;68814;50.872;5.306;2023-04-26T04:57:12;15.25;;;7.85;;
63434;SDS011;68814;50.872;5.306;2023-04-26T04:59:38;14.75;;;7.70;;
63434;SDS011;68814;50.872;5.306;2023-04-26T05:02:03;13.40;;;8.40;;
63434;SDS011;68814;50.872;5.306;2023-04-26T05:04:29;16.80;;;8.30;;
63434;SDS011;68814;50.872;5.306;2023-04-26T05:06:58;15.60;;;9.48;;
63434;SDS011;68814;50.872;5.306;2023-04-26T05:09:24;22.83;;;12.07;;
63434;SDS011;68814;50.872;5.306;2023-04-26T05:11:50;26.90;;;15.85;;
63434;SDS011;68814;50.872;5.306;2023-04-26T05:14:16;27.50;;;17.95;;
63434;SDS011;68814;50.872;5.306;2023-04-26T05:16:42;30.40;;;18.35;;
63434;SDS011;68814;50.872;5.306;2023-04-26T05:19:07;27.20;;;16.35;;
63434;SDS011;68814;50.872;5.306;2023-04-26T05:21:33;26.83;;;13.48;;
63434;SDS011;68814;50.872;5.306;2023-04-26T05:23:59;16.58;;;10.07;;
63434;SDS011;68814;50.872;5.306;2023-04-26T05:26:25;23.02;;;10.32;;
63434;SDS011;68814;50.872;5.306;2023-04-26T05:28:50;18.40;;;9.00;;
63434;SDS011;68814;50.872;5.306;2023-04-26T05:31:16;19.75;;;10.00;;
63434;SDS011;68814;50.872;5.306;2023-04-26T05:33:42;26.77;;;15.50;;
63434;SDS011;68814;50.872;5.306;2023-04-26T05:39:58;26.67;;;15.02;;
63434;SDS011;68814;50.872;5.306;2023-04-26T05:42:24;37.40;;;17.95;;
63434;SDS011;68814;50.872;5.306;2023-04-26T05:44:50;35.13;;;18.65;;
63434;SDS011;68814;50.872;5.306;2023-04-26T05:47:20;35.13;;;17.52;;
63434;SDS011;68814;50.872;5.306;2023-04-26T05:49:46;29.38;;;16.83;;
63434;SDS011;68814;50.872;5.306;2023-04-26T05:52:11;33.90;;;17.13;;
63434;SDS011;68814;50.872;5.306;2023-04-26T05:54:37;32.25;;;15.88;;
63434;SDS011;68814;50.872;5.306;2023-04-26T05:57:03;28.30;;;14.23;;
63434;SDS011;68814;50.872;5.306;2023-04-26T05:59:29;26.92;;;13.82;;
63434;SDS011;68814;50.872;5.306;2023-04-26T06:01:57;21.83;;;12.93;;
63434;SDS011;68814;50.872;5.306;2023-04-26T06:04:22;23.45;;;13.70;;
63434;SDS011;68814;50.872;5.306;2023-04-26T06:06:48;29.55;;;14.32;;
63434;SDS011;68814;50.872;5.306;2023-04-26T06:09:14;22.52;;;13.70;;
63434;SDS011;68814;50.872;5.306;2023-04-26T06:11:40;27.52;;;14.60;;
63434;SDS011;68814;50.872;5.306;2023-04-26T06:14:05;32.53;;;15.93;;
63434;SDS011;68814;50.872;5.306;2023-04-26T06:23:54;36.83;;;16.55;;
63434;SDS011;68814;50.872;5.306;2023-04-26T06:26:20;37.97;;;17.80;;
63434;SDS011;68814;50.872;5.306;2023-04-26T06:28:46;31.63;;;16.77;;
63434;SDS011;68814;50.872;5.306;2023-04-26T06:31:12;28.25;;;16.73;;
63434;SDS011;68814;50.872;5.306;2023-04-26T06:33:37;39.67;;;17.13;;
63434;SDS011;68814;50.872;5.306;2023-04-26T06:36:03;25.17;;;15.27;;
63434;SDS011;68814;50.872;5.306;2023-04-26T06:38:29;30.73;;;16.42;;
63434;SDS011;68814;50.872;5.306;2023-04-26T06:40:55;29.48;;;16.33;;
63434;SDS011;68814;50.872;5.306;2023-04-26T06:43:20;29.48;;;17.55;;
63434;SDS011;68814;50.872;5.306;2023-04-26T06:45:47;28.88;;;16.20;;
63434;SDS011;68814;50.872;5.306;2023-04-26T06:48:25;36.35;;;16.83;;
63434;SDS011;68814;50.872;5.306;2023-04-26T06:50:51;34.50;;;17.70;;
63434;SDS011;68814;50.872;5.306;2023-04-26T06:53:17;34.42;;;19.77;;
63434;SDS011;68814;50.872;5.306;2023-04-26T06:55:42;36.72;;;20.13;;
63434;SDS011;68814;50.872;5.306;2023-04-26T06:58:08;39.60;;;21.17;;
63434;SDS011;68814;50.872;5.306;2023-04-26T07:24:08;24.70;;;14.82;;
63434;SDS011;68814;50.872;5.306;2023-04-26T07:26:34;30.65;;;15.02;;
63434;SDS011;68814;50.872;5.306;2023-04-26T07:29:01;26.42;;;14.63;;
63434;SDS011;68814;50.872;5.306;2023-04-26T07:31:28;27.33;;;14.35;;
63434;SDS011;68814;50.872;5.306;2023-04-26T07:33:55;22.50;;;11.07;;
63434;SDS011;68814;50.872;5.306;2023-04-26T07:36:30;23.73;;;10.85;;
63434;SDS011;68814;50.872;5.306;2023-04-26T07:38:56;20.13;;;11.65;;
63434;SDS011;68814;50.872;5.306;2023-04-26T07:41:22;24.10;;;11.55;;
63434;SDS011;68814;50.872;5.306;2023-04-26T07:43:47;25.50;;;12.25;;
63434;SDS011;68814;50.872;5.306;2023-04-26T07:46:16;20.00;;;10.40;;
63434;SDS011;68814;50.872;5.306;2023-04-26T07:49:05;30.95;;;10.30;;
63434;SDS011;68814;50.872;5.306;2023-04-26T07:51:31;18.55;;;9.27;;
63434;SDS011;68814;50.872;5.306;2023-04-26T07:53:57;18.92;;;9.13;;
63434;SDS011;68814;50.872;5.306;2023-04-26T07:56:25;22.15;;;9.95;;
63434;SDS011;68814;50.872;5.306;2023-04-26T07:58:51;23.08;;;11.23;;
63434;SDS011;68814;50.872;5.306;2023-04-26T08:01:17;18.67;;;10.00;;
63434;SDS011;68814;50.872;5.306;2023-04-26T08:03:42;21.63;;;9.75;;
63434;SDS011;68814;50.872;5.306;2023-04-26T08:06:08;19.80;;;9.98;;
63434;SDS011;68814;50.872;5.306;2023-04-26T08:08:34;18.85;;;8.68;;
63434;SDS011;68814;50.872;5.306;2023-04-26T08:11:07;16.02;;;7.30;;
63434;SDS011;68814;50.872;5.306;2023-04-26T08:13:33;15.68;;;7.22;;
63434;SDS011;68814;50.872;5.306;2023-04-26T08:15:59;16.30;;;7.57;;
63434;SDS011;68814;50.872;5.306;2023-04-26T08:28:30;16.55;;;4.20;;
63434;SDS011;68814;50.872;5.306;2023-04-26T08:30:56;10.32;;;4.10;;
63434;SDS011;68814;50.872;5.306;2023-04-26T08:33:22;12.60;;;4.28;;
63434;SDS011;68814;50.872;5.306;2023-04-26T08:35:47;7.53;;;2.88;;
63434;SDS011;68814;50.872;5.306;2023-04-26T08:45:03;10.40;;;3.63;;
63434;SDS011;68814;50.872;5.306;2023-04-26T08:47:41;10.95;;;3.92;;
63434;SDS011;68814;50.872;5.306;2023-04-26T08:50:27;13.40;;;2.97;;
63434;SDS011;68814;50.872;5.306;2023-04-26T08:52:57;8.77;;;3.75;;
63434;SDS011;68814;50.872;5.306;2023-04-26T09:08:50;9.35;;;2.88;;
63434;SDS011;68814;50.872;5.306;2023-04-26T09:11:19;8.20;;;2.75;;
63434;SDS011;68814;50.872;5.306;2023-04-26T09:13:44;12.82;;;3.58;;
63434;SDS011;68814;50.872;5.306;2023-04-26T09:16:10;11.48;;;3.50;;
63434;SDS011;68814;50.872;5.306;2023-04-26T09:18:45;13.85;;;3.10;;
63434;SDS011;68814;50.872;5.306;2023-04-26T09:21:13;6.68;;;3.05;;
63434;SDS011;68814;50.872;5.306;2023-04-26T09:26:28;9.95;;;2.80;;
63434;SDS011;68814;50.872;5.306;2023-04-26T09:29:13;5.85;;;2.88;;
63434;SDS011;68814;50.872;5.306;2023-04-26T09:31:42;9.75;;;2.53;;
63434;SDS011;68814;50.872;5.306;2023-04-26T09:43:38;8.82;;;2.55;;
63434;SDS011;68814;50.872;5.306;2023-04-26T09:46:04;8.82;;;2.70;;
63434;SDS011;68814;50.872;5.306;2023-04-26T09:48:33;11.15;;;2.40;;
63434;SDS011;68814;50.872;5.306;2023-04-26T09:56:14;4.18;;;2.05;;
63434;SDS011;68814;50.872;5.306;2023-04-26T10:07:32;5.72;;;2.33;;
63434;SDS011;68814;50.872;5.306;2023-04-26T10:09:58;10.60;;;2.55;;
63434;SDS011;68814;50.872;5.306;2023-04-26T10:12:25;8.65;;;2.92;;
63434;SDS011;68814;50.872;5.306;2023-04-26T10:14:51;5.18;;;2.05;;
63434;SDS011;68814;50.872;5.306;2023-04-26T10:30:56;10.65;;;2.25;;
63434;SDS011;68814;50.872;5.306;2023-04-26T10:33:23;7.65;;;2.50;;
63434;SDS011;68814;50.872;5.306;2023-04-26T10:41:42;5.22;;;2.35;;
63434;SDS011;68814;50.872;5.306;2023-04-26T10:59:09;5.53;;;2.35;;
63434;SDS011;68814;50.872;5.306;2023-04-26T11:01:36;9.50;;;2.28;;
63434;SDS011;68814;50.872;5.306;2023-04-26T11:04:11;6.15;;;2.58;;
63434;SDS011;68814;50.872;5.306;2023-04-26T11:06:55;5.03;;;2.40;;
63434;SDS011;68814;50.872;5.306;2023-04-26T11:14:36;6.70;;;2.30;;
63434;SDS011;68814;50.872;5.306;2023-04-26T11:17:05;10.77;;;2.38;;
63434;SDS011;68814;50.872;5.306;2023-04-26T11:19:31;8.55;;;2.83;;
63434;SDS011;68814;50.872;5.306;2023-04-26T11:22:00;5.03;;;2.17;;
63434;SDS011;68814;50.872;5.306;2023-04-26T11:27:50;8.13;;;3.10;;
63434;SDS011;68814;50.872;5.306;2023-04-26T11:30:17;6.28;;;2.92;;
63434;SDS011;68814;50.872;5.306;2023-04-26T11:32:47;11.30;;;3.70;;
63434;SDS011;68814;50.872;5.306;2023-04-26T11:35:13;9.73;;;4.25;;
63434;SDS011;68814;50.872;5.306;2023-04-26T11:37:39;8.10;;;3.30;;
63434;SDS011;68814;50.872;5.306;2023-04-26T11:40:05;7.40;;;3.05;;
63434;SDS011;68814;50.872;5.306;2023-04-26T11:42:34;6.03;;;3.13;;
63434;SDS011;68814;50.872;5.306;2023-04-26T11:45:00;5.40;;;3.03;;
63434;SDS011;68814;50.872;5.306;2023-04-26T11:47:25;6.00;;;3.20;;
63434;SDS011;68814;50.872;5.306;2023-04-26T11:49:54;8.63;;;3.50;;
63434;SDS011;68814;50.872;5.306;2023-04-26T11:52:21;8.85;;;3.15;;
63434;SDS011;68814;50.872;5.306;2023-04-26T11:54:46;8.80;;;3.83;;
63434;SDS011;68814;50.872;5.306;2023-04-26T11:57:12;7.28;;;2.78;;
63434;SDS011;68814;50.872;5.306;2023-04-26T11:59:39;5.75;;;2.97;;
63434;SDS011;68814;50.872;5.306;2023-04-26T12:02:05;7.88;;;3.08;;
63434;SDS011;68814;50.872;5.306;2023-04-26T12:04:32;9.10;;;3.03;;
63434;SDS011;68814;50.872;5.306;2023-04-26T12:06:58;7.18;;;2.90;;
63434;SDS011;68814;50.872;5.306;2023-04-26T12:09:27;5.93;;;2.47;;
63434;SDS011;68814;50.872;5.306;2023-04-26T12:12:00;8.60;;;3.13;;
63434;SDS011;68814;50.872;5.306;2023-04-26T12:14:34;6.40;;;2.38;;
63434;SDS011;68814;50.872;5.306;2023-04-26T12:33:50;6.90;;;2.15;;
63434;SDS011;68814;50.872;5.306;2023-04-26T12:36:16;7.10;;;2.53;;
63434;SDS011;68814;50.872;5.306;2023-04-26T12:38:42;8.80;;;2.90;;
63434;SDS011;68814;50.872;5.306;2023-04-26T12:41:07;5.90;;;2.40;;
63434;SDS011;68814;50.872;5.306;2023-04-26T12:50:16;10.50;;;3.38;;
63434;SDS011;68814;50.872;5.306;2023-04-26T12:52:42;5.90;;;2.80;;
63434;SDS011;68814;50.872;5.306;2023-04-26T12:55:15;6.45;;;3.50;;
63434;SDS011;68814;50.872;5.306;2023-04-26T12:57:41;6.85;;;3.00;;
63434;SDS011;68814;50.872;5.306;2023-04-26T13:00:13;8.48;;;2.88;;
63434;SDS011;68814;50.872;5.306;2023-04-26T13:02:43;4.78;;;2.67;;
63434;SDS011;68814;50.872;5.306;2023-04-26T13:05:11;7.97;;;2.95;;
63434;SDS011;68814;50.872;5.306;2023-04-26T13:07:39;6.47;;;2.80;;
63434;SDS011;68814;50.872;5.306;2023-04-26T13:10:06;9.52;;;3.17;;
63434;SDS011;68814;50.872;5.306;2023-04-26T13:12:34;8.00;;;3.30;;
63434;SDS011;68814;50.872;5.306;2023-04-26T13:15:00;6.68;;;3.03;;
63434;SDS011;68814;50.872;5.306;2023-04-26T13:17:35;7.00;;;3.17;;
63434;SDS011;68814;50.872;5.306;2023-04-26T13:20:04;8.48;;;2.95;;
63434;SDS011;68814;50.872;5.306;2023-04-26T13:22:31;13.43;;;3.22;;
63434;SDS011;68814;50.872;5.306;2023-04-26T13:24:57;15.27;;;3.00;;
63434;SDS011;68814;50.872;5.306;2023-04-26T13:27:23;5.20;;;2.95;;
63434;SDS011;68814;50.872;5.306;2023-04-26T13:29:48;14.43;;;3.40;;
63434;SDS011;68814;50.872;5.306;2023-04-26T13:32:15;8.57;;;2.97;;
63434;SDS011;68814;50.872;5.306;2023-04-26T13:34:41;7.85;;;3.33;;
63434;SDS011;68814;50.872;5.306;2023-04-26T13:37:14;15.48;;;3.90;;
63434;SDS011;68814;50.872;5.306;2023-04-26T13:39:41;12.07;;;4.03;;
63434;SDS011;68814;50.872;5.306;2023-04-26T13:42:07;6.28;;;2.92;;
63434;SDS011;68814;50.872;5.306;2023-04-26T13:44:32;7.00;;;3.20;;
63434;SDS011;68814;50.872;5.306;2023-04-26T13:46:59;7.63;;;3.58;;
63434;SDS011;68814;50.872;5.306;2023-04-26T13:49:24;5.10;;;2.50;;
63434;SDS011;68814;50.872;5.306;2023-04-26T13:51:53;6.07;;;2.70;;
63434;SDS011;68814;50.872;5.306;2023-04-26T13:54:19;5.55;;;2.95;;
63434;SDS011;68814;50.872;5.306;2023-04-26T13:56:50;7.70;;;2.95;;
63434;SDS011;68814;50.872;5.306;2023-04-26T13:59:16;12.73;;;3.13;;
63434;SDS011;68814;50.872;5.306;2023-04-26T14:01:42;7.90;;;3.05;;
63434;SDS011;68814;50.872;5.306;2023-04-26T14:04:08;6.78;;;3.25;;
63434;SDS011;68814;50.872;5.306;2023-04-26T14:06:34;9.00;;;3.25;;
63434;SDS011;68814;50.872;5.306;2023-04-26T14:09:00;7.82;;;3.20;;
63434;SDS011;68814;50.872;5.306;2023-04-26T14:11:28;9.90;;;3.08;;
63434;SDS011;68814;50.872;5.306;2023-04-26T14:13:54;7.35;;;3.03;;
63434;SDS011;68814;50.872;5.306;2023-04-26T14:16:21;6.22;;;2.70;;
63434;SDS011;68814;50.872;5.306;2023-04-26T14:18:48;9.43;;;3.33;;
63434;SDS011;68814;50.872;5.306;2023-04-26T14:24:39;5.30;;;2.60;;
63434;SDS011;68814;50.872;5.306;2023-04-26T14:27:04;8.77;;;3.25;;
63434;SDS011;68814;50.872;5.306;2023-04-26T14:29:30;4.65;;;3.08;;
63434;SDS011;68814;50.872;5.306;2023-04-26T14:31:56;9.20;;;3.60;;
63434;SDS011;68814;50.872;5.306;2023-04-26T14:34:22;6.20;;;2.95;;
63434;SDS011;68814;50.872;5.306;2023-04-26T14:50:25;8.27;;;3.60;;
63434;SDS011;68814;50.872;5.306;2023-04-26T14:52:51;4.82;;;3.10;;
63434;SDS011;68814;50.872;5.306;2023-04-26T14:55:17;7.28;;;3.63;;
63434;SDS011;68814;50.872;5.306;2023-04-26T14:57:43;8.98;;;3.20;;
63434;SDS011;68814;50.872;5.306;2023-04-26T15:00:09;8.20;;;3.33;;
63434;SDS011;68814;50.872;5.306;2023-04-26T15:02:45;7.15;;;3.47;;
63434;SDS011;68814;50.872;5.306;2023-04-26T15:05:11;8.00;;;3.22;;
63434;SDS011;68814;50.872;5.306;2023-04-26T15:07:37;5.72;;;3.10;;
63434;SDS011;68814;50.872;5.306;2023-04-26T15:10:04;5.30;;;3.70;;
63434;SDS011;68814;50.872;5.306;2023-04-26T15:12:32;11.90;;;3.25;;
63434;SDS011;68814;50.872;5.306;2023-04-26T15:14:58;5.05;;;3.20;;
63434;SDS011;68814;50.872;5.306;2023-04-26T15:17:24;6.13;;;3.03;;
63434;SDS011;68814;50.872;5.306;2023-04-26T15:19:51;7.65;;;3.33;;
63434;SDS011;68814;50.872;5.306;2023-04-26T15:22:16;10.75;;;3.40;;
63434;SDS011;68814;50.872;5.306;2023-04-26T15:24:42;4.93;;;3.10;;
63434;SDS011;68814;50.872;5.306;2023-04-26T15:27:08;6.70;;;3.60;;
63434;SDS011;68814;50.872;5.306;2023-04-26T15:29:34;9.10;;;2.90;;
63434;SDS011;68814;50.872;5.306;2023-04-26T15:32:06;5.28;;;2.80;;
63434;SDS011;68814;50.872;5.306;2023-04-26T15:34:37;5.82;;;2.75;;
63434;SDS011;68814;50.872;5.306;2023-04-26T15:37:04;6.65;;;3.03;;
63434;SDS011;68814;50.872;5.306;2023-04-26T15:39:30;5.03;;;3.20;;
63434;SDS011;68814;50.872;5.306;2023-04-26T15:41:55;7.72;;;3.78;;
63434;SDS011;68814;50.872;5.306;2023-04-26T15:44:21;7.40;;;3.15;;
63434;SDS011;68814;50.872;5.306;2023-04-26T15:46:47;7.68;;;3.00;;
63434;SDS011;68814;50.872;5.306;2023-04-26T15:49:13;8.25;;;3.10;;
63434;SDS011;68814;50.872;5.306;2023-04-26T15:51:38;9.98;;;3.60;;
63434;SDS011;68814;50.872;5.306;2023-04-26T16:00:47;8.32;;;3.90;;
63434;SDS011;68814;50.872;5.306;2023-04-26T16:03:13;8.52;;;3.10;;
63434;SDS011;68814;50.872;5.306;2023-04-26T16:05:39;6.22;;;3.28;;
63434;SDS011;68814;50.872;5.306;2023-04-26T16:08:04;5.30;;;2.88;;
63434;SDS011;68814;50.872;5.306;2023-04-26T16:10:31;7.05;;;3.40;;
63434;SDS011;68814;50.872;5.306;2023-04-26T16:12:56;7.18;;;3.30;;
63434;SDS011;68814;50.872;5.306;2023-04-26T16:15:22;5.70;;;3.15;;
63434;SDS011;68814;50.872;5.306;2023-04-26T16:17:48;6.10;;;3.03;;
63434;SDS011;68814;50.872;5.306;2023-04-26T16:20:14;9.90;;;3.30;;
63434;SDS011;68814;50.872;5.306;2023-04-26T16:22:40;8.57;;;3.50;;
63434;SDS011;68814;50.872;5.306;2023-04-26T16:25:07;8.27;;;2.55;;
63434;SDS011;68814;50.872;5.306;2023-04-26T16:27:33;5.65;;;2.95;;
63434;SDS011;68814;50.872;5.306;2023-04-26T16:29:59;5.82;;;2.80;;
63434;SDS011;68814;50.872;5.306;2023-04-26T16:32:25;9.27;;;2.63;;
63434;SDS011;68814;50.872;5.306;2023-04-26T16:34:51;8.52;;;2.70;;
63434;SDS011;68814;50.872;5.306;2023-04-26T16:37:23;5.38;;;2.38;;
63434;SDS011;68814;50.872;5.306;2023-04-26T16:39:51;6.82;;;2.58;;
63434;SDS011;68814;50.872;5.306;2023-04-26T16:42:19;5.03;;;2.38;;
63434;SDS011;68814;50.872;5.306;2023-04-26T16:44:45;6.53;;;2.25;;
63434;SDS011;68814;50.872;5.306;2023-04-26T16:47:11;6.38;;;3.03;;
63434;SDS011;68814;50.872;5.306;2023-04-26T16:49:36;5.95;;;2.40;;
63434;SDS011;68814;50.872;5.306;2023-04-26T16:52:02;8.55;;;2.42;;
63434;SDS011;68814;50.872;5.306;2023-04-26T16:54:28;7.13;;;2.45;;
63434;SDS011;68814;50.872;5.306;2023-04-26T16:56:56;6.13;;;2.30;;
63434;SDS011;68814;50.872;5.306;2023-04-26T16:59:22;7.35;;;2.45;;
63434;SDS011;68814;50.872;5.306;2023-04-26T17:01:48;7.80;;;2.97;;
63434;SDS011;68814;50.872;5.306;2023-04-26T17:04:14;9.90;;;3.35;;
63434;SDS011;68814;50.872;5.306;2023-04-26T17:06:40;8.13;;;2.47;;
63434;SDS011;68814;50.872;5.306;2023-04-26T17:09:05;9.70;;;5.97;;
63434;SDS011;68814;50.872;5.306;2023-04-26T17:11:32;6.97;;;2.45;;
63434;SDS011;68814;50.872;5.306;2023-04-26T17:14:01;8.90;;;2.75;;
63434;SDS011;68814;50.872;5.306;2023-04-26T17:16:28;7.90;;;3.25;;
63434;SDS011;68814;50.872;5.306;2023-04-26T17:18:53;6.60;;;2.92;;
63434;SDS011;68814;50.872;5.306;2023-04-26T17:21:19;6.60;;;2.88;;
63434;SDS011;68814;50.872;5.306;2023-04-26T17:23:45;6.38;;;2.60;;
63434;SDS011;68814;50.872;5.306;2023-04-26T17:26:10;8.55;;;3.10;;
63434;SDS011;68814;50.872;5.306;2023-04-26T17:28:36;8.18;;;2.33;;
63434;SDS011;68814;50.872;5.306;2023-04-26T17:31:02;4.57;;;2.10;;
63434;SDS011;68814;50.872;5.306;2023-04-26T17:33:28;8.05;;;2.70;;
63434;SDS011;68814;50.872;5.306;2023-04-26T17:35:54;6.82;;;2.40;;
63434;SDS011;68814;50.872;5.306;2023-04-26T17:38:20;6.28;;;2.63;;
63434;SDS011;68814;50.872;5.306;2023-04-26T17:40:50;6.03;;;2.53;;
63434;SDS011;68814;50.872;5.306;2023-04-26T17:43:17;5.10;;;2.65;;
63434;SDS011;68814;50.872;5.306;2023-04-26T17:45:43;7.45;;;2.63;;
63434;SDS011;68814;50.872;5.306;2023-04-26T17:48:09;4.40;;;2.22;;
63434;SDS011;68814;50.872;5.306;2023-04-26T17:50:37;9.50;;;2.60;;
63434;SDS011;68814;50.872;5.306;2023-04-26T17:53:05;4.70;;;2.85;;
63434;SDS011;68814;50.872;5.306;2023-04-26T17:55:32;6.15;;;2.60;;
63434;SDS011;68814;50.872;5.306;2023-04-26T17:57:57;9.23;;;2.55;;
63434;SDS011;68814;50.872;5.306;2023-04-26T18:00:25;8.25;;;2.92;;
63434;SDS011;68814;50.872;5.306;2023-04-26T18:02:51;7.03;;;2.15;;
63434;SDS011;68814;50.872;5.306;2023-04-26T18:05:17;7.30;;;3.17;;
63434;SDS011;68814;50.872;5.306;2023-04-26T18:07:43;8.38;;;3.03;;
63434;SDS011;68814;50.872;5.306;2023-04-26T18:10:09;14.02;;;3.63;;
63434;SDS011;68814;50.872;5.306;2023-04-26T18:12:38;4.32;;;2.78;;
63434;SDS011;68814;50.872;5.306;2023-04-26T18:15:04;9.57;;;2.97;;
63434;SDS011;68814;50.872;5.306;2023-04-26T18:17:30;4.90;;;2.85;;
63434;SDS011;68814;50.872;5.306;2023-04-26T18:19:56;7.13;;;3.55;;
63434;SDS011;68814;50.872;5.306;2023-04-26T18:22:22;8.48;;;3.05;;
63434;SDS011;68814;50.872;5.306;2023-04-26T18:24:48;7.03;;;2.58;;
63434;SDS011;68814;50.872;5.306;2023-04-26T18:27:14;8.43;;;3.20;;
